Time;durP1;ratioP1;P1;durP2;ratioP2;P2;SDS_P1;SDS_P2;PMS_P1;PMS_P2;Temp;Humidity;BMP_temperature;BMP_pressure;BME280_temperature;BME280_humidity;BME280_pressure;Samples;Min_cycle;Max_cycle;Signal;HPM_P1;HPM_P2
2021/08/15 00:02:24;;;;;;;15.38;8.55;;;15.60;99.90;;;;;;5095468;28;20036;-65
2021/08/15 00:04:50;;;;;;;13.32;8.68;;;15.50;99.90;;;;;;5096611;28;20070;-65
2021/08/15 00:07:16;;;;;;;18.65;8.65;;;15.60;99.90;;;;;;5100703;28;20101;-65
2021/08/15 00:09:42;;;;;;;16.65;9.45;;;15.60;99.90;;;;;;5094849;28;20027;-65
2021/08/15 00:12:08;;;;;;;17.38;9.05;;;15.70;99.90;;;;;;5097360;28;20040;-66
2021/08/15 00:14:34;;;;;;;14.70;9.18;;;15.70;99.90;;;;;;5097668;28;20132;-65
2021/08/15 00:17:00;;;;;;;15.10;8.88;;;15.70;99.90;;;;;;5094828;27;20059;-66
2021/08/15 00:19:26;;;;;;;13.35;8.75;;;15.80;99.90;;;;;;5096731;27;20568;-65
2021/08/15 00:21:52;;;;;;;14.07;8.80;;;15.80;99.90;;;;;;5096247;28;20066;-65
2021/08/15 00:24:17;;;;;;;21.38;8.93;;;15.80;99.90;;;;;;5094705;28;20482;-66
2021/08/15 00:26:44;;;;;;;12.60;8.50;;;15.80;99.90;;;;;;5096108;27;20101;-65
2021/08/15 00:29:09;;;;;;;13.38;8.00;;;15.90;99.90;;;;;;5097131;27;20039;-65
2021/08/15 00:31:35;;;;;;;17.13;8.50;;;15.90;99.90;;;;;;5096891;28;20036;-65
2021/08/15 00:34:02;;;;;;;14.35;8.55;;;15.90;99.90;;;;;;5096855;27;20040;-65
2021/08/15 00:36:27;;;;;;;13.38;8.77;;;15.90;99.90;;;;;;5096877;28;20047;-65
2021/08/15 00:38:53;;;;;;;14.40;8.13;;;15.90;99.90;;;;;;5093172;27;20040;-66
2021/08/15 00:41:20;;;;;;;12.63;8.45;;;15.90;99.90;;;;;;5095918;28;20039;-65
2021/08/15 00:43:45;;;;;;;14.48;8.43;;;16.00;99.90;;;;;;5093297;27;20047;-65
2021/08/15 00:46:13;;;;;;;18.08;8.52;;;16.00;99.90;;;;;;5099145;28;20099;-66
2021/08/15 00:48:39;;;;;;;14.52;7.13;;;16.00;99.90;;;;;;5095956;27;20056;-65
2021/08/15 00:51:06;;;;;;;18.17;7.97;;;16.00;99.90;;;;;;5095971;27;20035;-65
2021/08/15 00:53:34;;;;;;;10.82;7.97;;;15.90;99.90;;;;;;5095196;28;20509;-65
2021/08/15 00:56:03;;;;;;;10.63;7.57;;;15.90;99.90;;;;;;5129445;27;20478;-66
2021/08/15 00:58:36;;;;;;;12.23;7.57;;;15.90;99.90;;;;;;5095850;28;20062;-65
2021/08/15 01:01:06;;;;;;;11.10;7.85;;;15.90;99.90;;;;;;5097537;28;20461;-65
2021/08/15 01:03:34;;;;;;;11.57;7.60;;;15.80;99.90;;;;;;5092723;28;20117;-65
2021/08/15 01:06:04;;;;;;;11.15;7.25;;;15.80;99.90;;;;;;5094882;28;20386;-66
2021/08/15 01:08:31;;;;;;;13.93;7.75;;;15.80;99.90;;;;;;5094668;28;20486;-65
2021/08/15 01:10:57;;;;;;;10.52;7.70;;;15.70;99.90;;;;;;5097399;28;20032;-65
2021/08/15 01:13:24;;;;;;;13.60;6.78;;;15.70;99.90;;;;;;5100553;28;20389;-66
2021/08/15 01:15:52;;;;;;;9.82;6.45;;;15.70;99.90;;;;;;5096184;28;20089;-65
2021/08/15 01:18:23;;;;;;;16.00;7.63;;;15.60;99.90;;;;;;5094385;28;20078;-66
2021/08/15 01:20:58;;;;;;;8.57;6.32;;;15.60;99.90;;;;;;5096581;28;20036;-66
2021/08/15 01:23:25;;;;;;;12.10;6.93;;;15.60;99.90;;;;;;5093302;28;20860;-66
2021/08/15 01:25:51;;;;;;;9.52;6.60;;;15.60;99.90;;;;;;5096115;28;20123;-66
2021/08/15 01:28:18;;;;;;;10.95;6.85;;;15.60;99.90;;;;;;5094781;28;20055;-65
2021/08/15 01:30:45;;;;;;;13.43;7.20;;;15.60;99.90;;;;;;5096051;28;20069;-65
2021/08/15 01:33:11;;;;;;;11.25;7.63;;;15.70;99.90;;;;;;5093040;28;20040;-66
2021/08/15 01:35:37;;;;;;;11.68;6.50;;;15.70;99.90;;;;;;5095362;28;20032;-65
2021/08/15 01:38:03;;;;;;;11.35;6.53;;;15.80;99.90;;;;;;5094845;27;20050;-65
2021/08/15 01:40:29;;;;;;;10.55;7.47;;;15.80;99.90;;;;;;5096177;28;20042;-65
2021/08/15 01:42:54;;;;;;;10.82;6.85;;;15.80;99.90;;;;;;5092000;28;20035;-66
2021/08/15 01:45:20;;;;;;;16.05;7.20;;;15.80;99.90;;;;;;5093841;28;20043;-66
2021/08/15 01:47:46;;;;;;;13.05;7.18;;;15.80;99.90;;;;;;5095389;28;20039;-66
2021/08/15 01:50:12;;;;;;;11.02;7.43;;;15.90;99.90;;;;;;5092500;27;20359;-65
2021/08/15 01:52:44;;;;;;;12.07;6.13;;;15.90;99.90;;;;;;5091907;28;20044;-66
2021/08/15 01:55:11;;;;;;;9.70;6.10;;;16.00;99.90;;;;;;5092514;28;20079;-66
2021/08/15 01:57:36;;;;;;;10.57;6.22;;;15.90;99.90;;;;;;5093248;28;20044;-67
2021/08/15 02:00:03;;;;;;;11.45;6.35;;;15.90;99.90;;;;;;5096910;28;20032;-66
2021/08/15 02:02:29;;;;;;;9.13;6.25;;;15.90;99.90;;;;;;5126577;27;20362;-66
2021/08/15 02:04:54;;;;;;;7.38;5.97;;;15.90;99.90;;;;;;5095523;28;20028;-66
2021/08/15 02:07:20;;;;;;;9.60;6.10;;;15.90;99.90;;;;;;5096261;28;20043;-66
2021/08/15 02:09:46;;;;;;;7.38;5.32;;;15.90;99.90;;;;;;5092129;28;20036;-66
2021/08/15 02:12:11;;;;;;;8.98;6.00;;;15.90;99.90;;;;;;5093502;28;20394;-66
2021/08/15 02:14:37;;;;;;;9.20;6.10;;;15.80;99.90;;;;;;5093249;28;20775;-66
2021/08/15 02:17:03;;;;;;;10.65;5.93;;;15.80;99.90;;;;;;5093197;28;20398;-66
2021/08/15 02:19:28;;;;;;;7.40;5.93;;;15.80;99.90;;;;;;5091691;28;20393;-66
2021/08/15 02:21:54;;;;;;;9.18;6.20;;;15.80;99.90;;;;;;5095487;28;21148;-66
2021/08/15 02:24:19;;;;;;;10.32;6.55;;;15.80;99.90;;;;;;5093982;28;20039;-66
2021/08/15 02:26:45;;;;;;;9.88;6.32;;;15.80;99.90;;;;;;5094710;28;20032;-66
2021/08/15 02:29:11;;;;;;;8.18;6.40;;;15.80;99.90;;;;;;5103537;28;20035;-66
2021/08/15 02:31:36;;;;;;;11.15;6.25;;;15.80;99.90;;;;;;5104210;28;20081;-66
2021/08/15 02:34:02;;;;;;;16.10;7.28;;;15.80;99.90;;;;;;5103048;28;20081;-66
2021/08/15 02:36:27;;;;;;;11.20;6.55;;;15.90;99.90;;;;;;5100392;28;20089;-66
2021/08/15 02:38:53;;;;;;;12.07;7.05;;;15.90;99.90;;;;;;5100535;28;20444;-66
2021/08/15 02:41:19;;;;;;;12.07;6.55;;;15.80;99.90;;;;;;5099878;28;20558;-66
2021/08/15 02:43:45;;;;;;;11.60;6.00;;;15.90;99.90;;;;;;5104429;28;20508;-66
2021/08/15 02:46:11;;;;;;;10.05;5.82;;;15.90;99.90;;;;;;5105727;28;20036;-66
2021/08/15 02:48:38;;;;;;;8.05;6.07;;;15.90;99.90;;;;;;5098899;28;20504;-66
2021/08/15 02:51:04;;;;;;;10.40;6.93;;;15.90;99.90;;;;;;5101851;27;20036;-66
2021/08/15 02:53:30;;;;;;;10.98;6.05;;;15.90;99.90;;;;;;5097086;28;20051;-66
2021/08/15 02:55:56;;;;;;;7.45;5.32;;;15.80;99.90;;;;;;5102076;28;20036;-66
2021/08/15 02:58:21;;;;;;;10.25;5.82;;;15.80;99.90;;;;;;5099081;28;20036;-66
2021/08/15 03:00:47;;;;;;;7.93;5.85;;;15.80;99.90;;;;;;5099441;28;20123;-66
2021/08/15 03:03:12;;;;;;;8.80;5.80;;;15.80;99.90;;;;;;5097206;28;20038;-66
2021/08/15 03:05:38;;;;;;;10.60;6.13;;;15.80;99.90;;;;;;5099847;28;20044;-66
2021/08/15 03:08:04;;;;;;;12.07;5.50;;;15.70;99.90;;;;;;5100517;28;20043;-66
2021/08/15 03:10:30;;;;;;;8.20;5.65;;;15.70;99.90;;;;;;5098825;28;20387;-66
2021/08/15 03:12:55;;;;;;;10.05;6.13;;;15.70;99.90;;;;;;5100443;28;20046;-66
2021/08/15 03:15:21;;;;;;;7.80;5.90;;;15.60;99.90;;;;;;5103102;28;20400;-66
2021/08/15 03:17:47;;;;;;;10.07;5.72;;;15.50;99.90;;;;;;5106118;28;20806;-66
2021/08/15 03:20:14;;;;;;;11.25;6.30;;;15.50;99.90;;;;;;5098040;28;20561;-66
2021/08/15 03:22:40;;;;;;;7.90;5.80;;;15.50;99.90;;;;;;5100945;28;20054;-66
2021/08/15 03:25:07;;;;;;;9.90;6.55;;;15.40;99.90;;;;;;5096321;28;20478;-66
2021/08/15 03:27:34;;;;;;;8.70;5.45;;;15.40;99.90;;;;;;5101614;28;20035;-66
2021/08/15 03:30:00;;;;;;;8.27;6.32;;;15.40;99.90;;;;;;5107387;28;20504;-66
2021/08/15 03:32:27;;;;;;;7.07;5.38;;;15.30;99.90;;;;;;5102845;28;20028;-66
2021/08/15 03:34:52;;;;;;;10.30;7.05;;;15.30;99.90;;;;;;5098266;28;20043;-66
2021/08/15 03:37:18;;;;;;;9.25;6.35;;;15.20;99.90;;;;;;5095939;28;20083;-66
2021/08/15 03:39:44;;;;;;;17.10;7.00;;;15.20;99.90;;;;;;5094939;28;20398;-66
2021/08/15 03:42:10;;;;;;;8.00;5.97;;;15.20;99.90;;;;;;5107192;28;20043;-66
2021/08/15 03:44:35;;;;;;;10.27;5.72;;;15.20;99.90;;;;;;5103444;28;20120;-66
2021/08/15 03:47:01;;;;;;;9.02;6.47;;;15.20;99.90;;;;;;5105081;28;20042;-66
2021/08/15 03:49:28;;;;;;;8.07;5.18;;;15.20;99.90;;;;;;5103830;28;20041;-66
2021/08/15 03:51:56;;;;;;;11.88;5.53;;;15.10;99.90;;;;;;5105122;27;20107;-66
2021/08/15 03:54:23;;;;;;;7.45;5.60;;;15.20;99.90;;;;;;5104488;28;20047;-66
2021/08/15 03:56:50;;;;;;;7.55;5.85;;;15.20;99.90;;;;;;5103837;27;20071;-66
2021/08/15 03:59:16;;;;;;;9.77;6.22;;;15.30;99.90;;;;;;5106181;28;20056;-66
2021/08/15 04:01:42;;;;;;;11.45;6.93;;;15.30;99.90;;;;;;5104905;28;20031;-66
2021/08/15 04:04:08;;;;;;;8.15;6.07;;;15.30;99.90;;;;;;5108125;28;20100;-66
2021/08/15 04:06:34;;;;;;;11.38;6.60;;;15.30;99.90;;;;;;5102288;28;20060;-66
2021/08/15 04:09:01;;;;;;;9.63;6.10;;;15.30;99.90;;;;;;5130853;27;20119;-66
2021/08/15 04:11:28;;;;;;;8.95;6.07;;;15.30;99.90;;;;;;5096726;28;20036;-66
2021/08/15 04:13:54;;;;;;;13.32;5.78;;;15.40;99.90;;;;;;5103529;28;20066;-66
2021/08/15 04:16:19;;;;;;;8.38;6.03;;;15.30;99.90;;;;;;5105835;28;20303;-66
2021/08/15 04:18:45;;;;;;;8.48;5.40;;;15.30;99.90;;;;;;5101744;28;20085;-66
2021/08/15 04:21:11;;;;;;;8.93;6.43;;;15.30;99.90;;;;;;5100994;28;20039;-66
2021/08/15 04:23:36;;;;;;;7.97;5.65;;;15.30;99.90;;;;;;5101669;28;20497;-66
2021/08/15 04:26:03;;;;;;;8.02;5.57;;;15.30;99.90;;;;;;5105361;27;20057;-66
2021/08/15 04:28:30;;;;;;;9.57;5.90;;;15.40;99.90;;;;;;5104623;28;20048;-66
2021/08/15 04:30:56;;;;;;;8.35;5.35;;;15.40;99.90;;;;;;5106470;28;20032;-66
2021/08/15 04:33:24;;;;;;;10.25;5.20;;;15.40;99.90;;;;;;5100909;27;20481;-66
2021/08/15 04:35:54;;;;;;;10.30;6.50;;;15.50;99.90;;;;;;5100175;28;20071;-66
2021/08/15 04:38:21;;;;;;;9.60;5.40;;;15.50;99.90;;;;;;5105435;28;20036;-66
2021/08/15 04:40:48;;;;;;;7.65;5.53;;;15.50;99.90;;;;;;5101901;27;20084;-66
2021/08/15 04:43:14;;;;;;;7.50;5.25;;;15.50;99.90;;;;;;5105532;28;20066;-66
2021/08/15 04:45:39;;;;;;;7.03;5.30;;;15.50;99.90;;;;;;5105173;28;20485;-66
2021/08/15 04:48:05;;;;;;;9.10;5.80;;;15.50;99.90;;;;;;5100358;28;20092;-66
2021/08/15 04:50:31;;;;;;;8.10;5.72;;;15.40;99.90;;;;;;5101979;28;20035;-66
2021/08/15 04:52:56;;;;;;;9.30;5.65;;;15.40;99.90;;;;;;5098822;28;20044;-66
2021/08/15 04:55:23;;;;;;;9.27;5.50;;;15.40;99.90;;;;;;5104677;27;20067;-66
2021/08/15 04:57:48;;;;;;;10.93;5.53;;;15.50;99.90;;;;;;5102035;28;20490;-66
2021/08/15 05:00:14;;;;;;;9.00;5.65;;;15.50;99.90;;;;;;5103602;28;20162;-66
2021/08/15 05:02:40;;;;;;;8.23;5.40;;;15.50;99.90;;;;;;5108667;28;20468;-66
2021/08/15 05:05:06;;;;;;;7.00;5.80;;;15.50;99.90;;;;;;5103127;28;20139;-66
2021/08/15 05:07:32;;;;;;;7.68;5.55;;;15.50;99.90;;;;;;5102812;27;20040;-66
2021/08/15 05:09:58;;;;;;;7.68;5.55;;;15.50;99.90;;;;;;5099400;28;20045;-66
2021/08/15 05:12:23;;;;;;;8.50;5.60;;;15.60;99.90;;;;;;5098956;28;20031;-66
2021/08/15 05:14:49;;;;;;;7.60;5.20;;;15.60;99.90;;;;;;5091588;28;20047;-66
2021/08/15 05:17:15;;;;;;;8.75;6.47;;;15.60;99.90;;;;;;5093389;28;20028;-66
2021/08/15 05:19:40;;;;;;;9.93;6.30;;;15.60;99.90;;;;;;5093465;28;20042;-66
2021/08/15 05:22:06;;;;;;;7.82;6.47;;;15.60;99.90;;;;;;5095144;28;20040;-66
2021/08/15 05:24:32;;;;;;;14.95;6.10;;;15.70;99.90;;;;;;5096592;28;20070;-66
2021/08/15 05:26:58;;;;;;;9.15;5.70;;;15.70;99.90;;;;;;5095463;28;20035;-66
2021/08/15 05:29:24;;;;;;;11.27;5.78;;;15.70;99.90;;;;;;5093110;28;20062;-66
2021/08/15 05:31:49;;;;;;;11.80;6.30;;;15.80;99.90;;;;;;5094163;28;20555;-66
2021/08/15 05:34:15;;;;;;;9.55;6.05;;;15.70;99.90;;;;;;5094395;28;20406;-66
2021/08/15 05:36:41;;;;;;;8.18;6.60;;;15.80;99.90;;;;;;5097393;28;20567;-66
2021/08/15 05:39:06;;;;;;;6.90;5.85;;;15.70;99.90;;;;;;5092289;27;21419;-66
2021/08/15 05:41:32;;;;;;;8.77;6.25;;;15.70;99.90;;;;;;5091262;28;20490;-66
2021/08/15 05:43:58;;;;;;;9.40;6.47;;;15.80;99.90;;;;;;5094537;28;20359;-66
2021/08/15 05:46:23;;;;;;;8.45;5.35;;;16.10;99.90;;;;;;5098138;27;20429;-66
2021/08/15 05:48:49;;;;;;;6.85;4.78;;;17.20;99.90;;;;;;5093503;28;20601;-66
2021/08/15 05:51:15;;;;;;;10.95;5.18;;;18.80;99.90;;;;;;5096141;28;20035;-66
2021/08/15 05:53:40;;;;;;;9.00;4.65;;;20.50;99.90;;;;;;5095913;28;20042;-66
2021/08/15 05:56:07;;;;;;;4.95;4.18;;;21.90;99.90;;;;;;5093338;28;20043;-66
2021/08/15 05:58:32;;;;;;;6.93;4.93;;;23.20;99.90;;;;;;5092446;28;20606;-66
2021/08/15 06:00:58;;;;;;;7.18;4.97;;;24.40;99.90;;;;;;5094304;28;20035;-66
2021/08/15 06:03:24;;;;;;;7.55;4.93;;;25.40;99.70;;;;;;5092508;28;20039;-66
2021/08/15 06:05:49;;;;;;;8.57;4.90;;;26.20;96.70;;;;;;5093674;28;20123;-66
2021/08/15 06:08:16;;;;;;;5.68;4.68;;;27.00;93.60;;;;;;5095242;28;20067;-67
2021/08/15 06:10:42;;;;;;;10.52;4.88;;;27.70;89.90;;;;;;5092988;28;20039;-67
2021/08/15 06:13:09;;;;;;;6.20;4.35;;;28.20;84.40;;;;;;5097576;28;20557;-67
2021/08/15 06:15:35;;;;;;;7.45;5.05;;;28.70;78.40;;;;;;5092085;28;20047;-66
2021/08/15 06:18:01;;;;;;;8.02;5.50;;;29.10;76.00;;;;;;5093407;27;20041;-66
2021/08/15 06:20:29;;;;;;;7.18;5.00;;;29.50;72.10;;;;;;5094985;28;20036;-66
2021/08/15 06:22:55;;;;;;;9.50;5.35;;;30.20;66.40;;;;;;5093696;28;20028;-67
2021/08/15 06:25:20;;;;;;;7.40;4.22;;;30.70;63.70;;;;;;5094143;28;20532;-67
2021/08/15 06:27:46;;;;;;;6.03;4.70;;;31.00;62.30;;;;;;5096105;28;20051;-67
2021/08/15 06:30:17;;;;;;;5.65;4.75;;;31.20;60.10;;;;;;5094480;28;20043;-67
2021/08/15 06:32:51;;;;;;;6.70;4.13;;;31.50;58.20;;;;;;5092061;28;20042;-67
2021/08/15 06:35:24;;;;;;;6.20;4.47;;;31.30;56.30;;;;;;5093000;28;20047;-66
2021/08/15 06:37:52;;;;;;;7.55;4.78;;;30.60;57.90;;;;;;5096434;28;20031;-67
2021/08/15 06:40:19;;;;;;;7.90;4.97;;;29.90;60.60;;;;;;5095382;28;20055;-67
2021/08/15 06:42:45;;;;;;;7.63;4.25;;;29.10;62.20;;;;;;5096588;28;20036;-67
2021/08/15 06:45:12;;;;;;;8.35;4.63;;;28.60;65.00;;;;;;5093278;28;20539;-67
2021/08/15 06:47:37;;;;;;;8.70;4.72;;;27.80;67.60;;;;;;5093607;28;20043;-67
2021/08/15 06:50:05;;;;;;;6.30;4.80;;;27.30;71.40;;;;;;5093918;28;20035;-66
2021/08/15 06:52:31;;;;;;;5.95;4.60;;;26.80;76.20;;;;;;5094992;28;20108;-67
2021/08/15 06:54:58;;;;;;;7.68;4.63;;;26.50;79.40;;;;;;5090442;28;20044;-66
2021/08/15 06:57:24;;;;;;;6.70;4.82;;;26.20;82.00;;;;;;5093122;28;20058;-66
2021/08/15 06:59:50;;;;;;;6.35;4.43;;;26.00;85.50;;;;;;5099519;28;20163;-67
2021/08/15 07:02:15;;;;;;;4.75;4.30;;;25.80;90.20;;;;;;5103303;28;20038;-66
2021/08/15 07:04:41;;;;;;;9.43;5.30;;;25.70;91.50;;;;;;5100166;28;20048;-66
2021/08/15 07:07:07;;;;;;;6.90;4.65;;;25.50;92.10;;;;;;5101991;28;20639;-66
2021/08/15 07:09:32;;;;;;;6.65;3.90;;;25.30;92.30;;;;;;5102711;28;20034;-66
2021/08/15 07:11:58;;;;;;;6.95;4.25;;;25.50;93.60;;;;;;5106054;28;20036;-66
2021/08/15 07:14:25;;;;;;;7.10;4.15;;;25.60;93.60;;;;;;5100698;28;20104;-66
2021/08/15 07:16:51;;;;;;;9.88;5.00;;;25.60;93.70;;;;;;5104237;28;20433;-66
2021/08/15 07:19:16;;;;;;;8.70;4.82;;;25.60;93.70;;;;;;5105349;27;20039;-66
2021/08/15 07:21:42;;;;;;;7.85;5.22;;;25.40;93.60;;;;;;5104390;28;20474;-66
2021/08/15 07:24:08;;;;;;;10.02;5.10;;;25.30;94.30;;;;;;5104565;28;20040;-66
2021/08/15 07:26:33;;;;;;;6.88;5.07;;;25.20;95.10;;;;;;5102221;28;20039;-66
2021/08/15 07:28:59;;;;;;;6.75;4.55;;;25.20;95.80;;;;;;5103879;27;20059;-66
2021/08/15 07:31:25;;;;;;;9.75;5.68;;;25.10;96.10;;;;;;5111116;27;20456;-66
2021/08/15 07:33:51;;;;;;;7.35;4.38;;;25.10;96.40;;;;;;5105147;28;20032;-66
2021/08/15 07:36:17;;;;;;;8.52;4.70;;;25.10;96.80;;;;;;5104419;27;20050;-66
2021/08/15 07:38:42;;;;;;;7.78;4.20;;;25.10;96.70;;;;;;5104729;28;20040;-66
2021/08/15 07:41:09;;;;;;;8.75;4.70;;;25.20;96.60;;;;;;5106840;27;20047;-66
2021/08/15 07:43:35;;;;;;;10.27;4.80;;;25.20;96.90;;;;;;5104973;28;20110;-66
2021/08/15 07:46:01;;;;;;;9.00;4.65;;;25.30;97.00;;;;;;5106236;28;20111;-66
2021/08/15 07:48:27;;;;;;;7.78;5.07;;;25.30;96.90;;;;;;5104104;28;20043;-66
2021/08/15 07:50:53;;;;;;;9.32;4.93;;;25.20;97.30;;;;;;5103471;28;20040;-65
2021/08/15 07:53:26;;;;;;;7.13;4.80;;;25.20;97.60;;;;;;5103545;28;20482;-66
2021/08/15 07:55:55;;;;;;;7.60;5.00;;;25.20;97.40;;;;;;5102521;28;20359;-67
2021/08/15 07:58:22;;;;;;;8.77;4.85;;;25.10;97.80;;;;;;5100315;27;20032;-66
2021/08/15 08:00:49;;;;;;;21.05;5.82;;;25.10;97.80;;;;;;5106612;27;20059;-67
2021/08/15 08:03:15;;;;;;;9.48;4.70;;;25.00;97.80;;;;;;5102931;28;20755;-65
2021/08/15 08:05:42;;;;;;;7.68;5.43;;;25.10;98.50;;;;;;5103373;27;20085;-65
2021/08/15 08:08:08;;;;;;;6.82;4.38;;;25.20;98.40;;;;;;5103469;28;20503;-66
2021/08/15 08:10:34;;;;;;;6.28;3.85;;;25.20;98.70;;;;;;5101763;27;20044;-65
2021/08/15 08:13:00;;;;;;;8.63;4.75;;;25.30;98.50;;;;;;5104643;28;20044;-66
2021/08/15 08:15:26;;;;;;;8.25;5.07;;;25.40;98.30;;;;;;5106431;27;20093;-66
2021/08/15 08:17:51;;;;;;;10.70;5.57;;;25.50;97.80;;;;;;5102296;28;20113;-66
2021/08/15 08:20:20;;;;;;;7.80;5.03;;;25.70;97.60;;;;;;5101729;28;20035;-65
2021/08/15 08:22:49;;;;;;;9.88;4.72;;;25.50;96.80;;;;;;5103727;27;20047;-65
2021/08/15 08:25:16;;;;;;;10.27;4.80;;;25.60;97.50;;;;;;5108320;28;20114;-66
2021/08/15 08:27:42;;;;;;;10.57;5.63;;;25.60;97.20;;;;;;5108045;28;20039;-65
2021/08/15 08:30:09;;;;;;;9.68;4.93;;;25.60;96.30;;;;;;5105456;28;20422;-65
2021/08/15 08:32:34;;;;;;;8.73;4.82;;;25.60;96.70;;;;;;5106138;28;20075;-65
2021/08/15 08:35:00;;;;;;;5.80;4.75;;;25.50;97.10;;;;;;5104420;28;20071;-66
2021/08/15 08:37:26;;;;;;;9.60;5.05;;;25.60;96.90;;;;;;5104461;28;20445;-65
2021/08/15 08:39:52;;;;;;;12.10;5.20;;;25.60;97.10;;;;;;5101253;27;20032;-66
2021/08/15 08:42:17;;;;;;;11.02;5.25;;;25.60;96.30;;;;;;5107427;28;20027;-66
2021/08/15 08:44:43;;;;;;;8.73;5.30;;;25.70;97.70;;;;;;5105027;28;20044;-66
2021/08/15 08:47:13;;;;;;;8.43;5.15;;;25.80;97.30;;;;;;5103827;28;20126;-66
2021/08/15 08:49:41;;;;;;;10.82;5.45;;;25.80;96.40;;;;;;5104370;27;20035;-66
2021/08/15 08:52:07;;;;;;;10.18;5.50;;;25.80;95.80;;;;;;5106063;28;20070;-66
2021/08/15 08:54:34;;;;;;;9.73;5.35;;;25.80;96.60;;;;;;5103323;28;20036;-66
2021/08/15 08:56:59;;;;;;;7.45;4.82;;;25.80;96.70;;;;;;5103856;28;20036;-66
2021/08/15 08:59:26;;;;;;;9.55;5.28;;;25.70;96.30;;;;;;5108310;27;20039;-66
2021/08/15 09:01:52;;;;;;;7.95;4.60;;;25.60;97.40;;;;;;5105550;28;20035;-66
2021/08/15 09:04:17;;;;;;;12.30;4.93;;;25.70;97.40;;;;;;5102585;28;20827;-66
2021/08/15 09:06:43;;;;;;;10.18;5.47;;;25.80;97.20;;;;;;5103581;27;20439;-65
2021/08/15 09:09:14;;;;;;;10.50;4.88;;;25.70;96.10;;;;;;5099223;28;20053;-66
2021/08/15 09:11:41;;;;;;;10.23;5.43;;;25.80;95.80;;;;;;5130747;27;20081;-66
2021/08/15 09:14:12;;;;;;;8.10;4.60;;;25.70;95.80;;;;;;5106653;27;20053;-66
2021/08/15 09:17:00;;;;;;;12.90;5.88;;;25.60;95.50;;;;;;5104926;27;20608;-66
2021/08/15 09:19:36;;;;;;;10.57;5.00;;;25.80;96.70;;;;;;5103870;27;20066;-66
2021/08/15 09:22:21;;;;;;;12.93;6.20;;;25.80;96.70;;;;;;5101703;27;20497;-66
2021/08/15 09:24:58;;;;;;;11.88;4.60;;;25.80;95.70;;;;;;5105472;28;20044;-66
2021/08/15 09:27:34;;;;;;;10.65;5.53;;;25.70;97.70;;;;;;5105623;28;20043;-66
2021/08/15 09:30:08;;;;;;;7.93;4.68;;;25.80;96.10;;;;;;5104893;28;20473;-67
2021/08/15 09:32:35;;;;;;;13.52;5.70;;;25.80;95.80;;;;;;5099953;28;20474;-63
2021/08/15 09:35:02;;;;;;;11.52;5.13;;;26.00;95.40;;;;;;5105289;27;20043;-63
2021/08/15 09:37:32;;;;;;;9.02;5.47;;;26.20;94.90;;;;;;5103518;27;20098;-66
2021/08/15 09:39:58;;;;;;;13.48;5.35;;;26.30;95.00;;;;;;5104688;28;20494;-68
2021/08/15 09:42:43;;;;;;;10.57;5.82;;;26.40;95.40;;;;;;5103058;28;20039;-68
2021/08/15 09:45:14;;;;;;;11.93;5.95;;;26.40;94.50;;;;;;5105035;28;20044;-68
2021/08/15 09:47:41;;;;;;;13.38;5.95;;;26.40;95.40;;;;;;5104526;28;20036;-70
2021/08/15 09:50:23;;;;;;;10.90;6.15;;;26.50;95.40;;;;;;5105872;28;20100;-68
2021/08/15 09:52:49;;;;;;;10.65;5.90;;;26.50;94.50;;;;;;5100489;28;20074;-68
2021/08/15 09:55:14;;;;;;;10.20;5.68;;;26.60;95.70;;;;;;5103852;28;21021;-69
2021/08/15 09:57:42;;;;;;;10.38;6.15;;;26.60;96.10;;;;;;5096473;28;20044;-69
2021/08/15 10:00:23;;;;;;;10.75;5.15;;;26.50;94.40;;;;;;5107259;28;20052;-68
2021/08/15 10:02:48;;;;;;;12.90;5.32;;;26.50;95.70;;;;;;5101760;28;20059;-69
2021/08/15 10:05:15;;;;;;;10.00;6.00;;;26.50;94.50;;;;;;5100422;28;20123;-68
2021/08/15 10:07:42;;;;;;;12.40;6.10;;;26.60;95.70;;;;;;5098293;28;20124;-67
2021/08/15 10:10:11;;;;;;;11.90;5.95;;;26.60;94.50;;;;;;5105913;28;20038;-68
2021/08/15 10:12:36;;;;;;;11.20;5.35;;;26.60;94.20;;;;;;5104206;28;20046;-72
2021/08/15 10:15:04;;;;;;;14.38;7.68;;;26.70;95.00;;;;;;5104179;28;20039;-69
2021/08/15 10:17:31;;;;;;;9.70;5.38;;;26.80;95.20;;;;;;5099286;28;20032;-69
2021/08/15 10:19:59;;;;;;;11.80;5.43;;;26.80;94.30;;;;;;5100884;28;20036;-70
2021/08/15 10:22:29;;;;;;;13.15;6.25;;;26.90;95.40;;;;;;5101262;28;20486;-68
2021/08/15 10:24:59;;;;;;;8.82;5.35;;;27.00;94.20;;;;;;5102802;28;20039;-69
2021/08/15 10:27:47;;;;;;;9.80;5.43;;;27.00;94.20;;;;;;5104450;28;20097;-69
2021/08/15 10:30:13;;;;;;;7.38;5.28;;;27.00;94.00;;;;;;5104647;28;20042;-69
2021/08/15 10:32:59;;;;;;;10.25;5.65;;;27.10;94.60;;;;;;5101129;28;20423;-69
2021/08/15 10:35:38;;;;;;;9.05;5.75;;;27.20;95.20;;;;;;5097108;28;20052;-69
2021/08/15 10:38:16;;;;;;;10.02;5.70;;;27.20;91.00;;;;;;5102300;28;20040;-69
2021/08/15 10:40:41;;;;;;;9.00;5.32;;;27.20;93.90;;;;;;5103266;28;20351;-69
2021/08/15 10:43:09;;;;;;;11.00;5.53;;;27.30;95.30;;;;;;5102235;28;20035;-69
2021/08/15 10:45:35;;;;;;;9.82;5.32;;;27.40;94.40;;;;;;5105031;28;20040;-69
2021/08/15 10:48:09;;;;;;;14.77;6.82;;;27.50;93.60;;;;;;5102056;28;20051;-69
2021/08/15 10:50:43;;;;;;;10.77;6.05;;;27.50;91.90;;;;;;5101363;28;20035;-69
2021/08/15 10:53:30;;;;;;;12.27;7.25;;;27.60;93.50;;;;;;5106717;27;20035;-69
2021/08/15 10:55:59;;;;;;;12.52;5.40;;;27.50;90.00;;;;;;5132486;27;20064;-67
2021/08/15 10:58:44;;;;;;;10.43;7.00;;;27.50;93.00;;;;;;5111576;28;20039;-69
2021/08/15 11:01:15;;;;;;;10.45;6.32;;;27.50;92.80;;;;;;5108683;28;20455;-70
2021/08/15 11:03:47;;;;;;;11.52;6.15;;;27.40;93.30;;;;;;5103300;27;20040;-70
2021/08/15 11:06:31;;;;;;;9.10;6.05;;;27.50;93.20;;;;;;5102476;28;20039;-69
2021/08/15 11:09:05;;;;;;;10.23;5.60;;;27.40;91.90;;;;;;5105644;28;20055;-70
2021/08/15 11:11:33;;;;;;;7.88;4.55;;;27.40;91.70;;;;;;5109635;28;20035;-69
2021/08/15 11:14:17;;;;;;;9.48;4.80;;;27.40;91.30;;;;;;5104047;28;20028;-67
2021/08/15 11:16:52;;;;;;;11.60;5.38;;;27.30;90.90;;;;;;5104454;28;20043;-72
2021/08/15 11:19:17;;;;;;;11.18;4.63;;;27.30;92.70;;;;;;5105988;28;20057;-70
2021/08/15 11:22:03;;;;;;;9.02;5.68;;;27.40;92.50;;;;;;5106735;28;20035;-69
2021/08/15 11:24:31;;;;;;;9.63;5.57;;;27.50;91.70;;;;;;5107234;28;20035;-70
2021/08/15 11:26:57;;;;;;;9.43;4.60;;;27.30;90.90;;;;;;5106002;27;20607;-69
2021/08/15 11:29:24;;;;;;;12.02;5.75;;;27.20;92.80;;;;;;5108099;28;20032;-69
2021/08/15 11:31:52;;;;;;;8.43;4.53;;;27.20;92.80;;;;;;5104442;28;20034;-68
2021/08/15 11:34:19;;;;;;;15.13;6.07;;;27.10;91.30;;;;;;5101860;28;20066;-68
2021/08/15 11:37:05;;;;;;;8.13;5.47;;;26.90;91.70;;;;;;5098951;28;20048;-68
2021/08/15 11:39:33;;;;;;;11.35;4.80;;;26.70;93.30;;;;;;5099075;28;20032;-68
2021/08/15 11:42:05;;;;;;;9.52;5.65;;;26.50;94.20;;;;;;5099892;28;20035;-68
2021/08/15 11:44:47;;;;;;;9.40;4.70;;;26.50;94.90;;;;;;5105887;28;20067;-68
2021/08/15 11:47:28;;;;;;;6.95;4.88;;;26.60;96.20;;;;;;5104800;28;20039;-68
2021/08/15 11:49:55;;;;;;;10.07;4.65;;;26.60;93.30;;;;;;5102840;28;20039;-69
2021/08/15 11:52:24;;;;;;;8.05;4.78;;;26.70;94.60;;;;;;5107749;28;20486;-69
2021/08/15 11:54:53;;;;;;;7.20;4.22;;;26.70;93.40;;;;;;5105587;27;20395;-68
2021/08/15 11:57:19;;;;;;;12.13;4.40;;;27.00;94.00;;;;;;5102241;27;20050;-69
2021/08/15 11:59:47;;;;;;;7.80;4.53;;;27.00;90.40;;;;;;5106321;28;20097;-68
2021/08/15 12:02:19;;;;;;;7.65;4.43;;;27.00;90.50;;;;;;5105183;28;20047;-69
2021/08/15 12:04:46;;;;;;;7.82;3.83;;;27.10;90.20;;;;;;5105020;27;20040;-69
2021/08/15 12:07:12;;;;;;;8.00;4.25;;;27.30;90.60;;;;;;5103769;28;20159;-68
2021/08/15 12:09:38;;;;;;;8.52;4.28;;;27.40;91.00;;;;;;5102404;28;20080;-69
2021/08/15 12:12:04;;;;;;;7.90;4.00;;;27.30;91.00;;;;;;5098983;28;20436;-69
2021/08/15 12:14:38;;;;;;;8.27;4.70;;;27.30;91.00;;;;;;5101662;28;20118;-68
2021/08/15 12:17:04;;;;;;;8.93;4.53;;;27.40;92.30;;;;;;5104858;28;20118;-68
2021/08/15 12:19:32;;;;;;;6.15;3.47;;;27.40;92.20;;;;;;5100415;28;20054;-68
2021/08/15 12:22:00;;;;;;;8.88;3.65;;;27.40;91.00;;;;;;5099384;28;20036;-68
2021/08/15 12:24:31;;;;;;;8.65;4.60;;;27.50;90.70;;;;;;5100530;27;20043;-68
2021/08/15 12:27:06;;;;;;;14.00;4.75;;;27.50;90.80;;;;;;5102765;28;20414;-69
2021/08/15 12:29:35;;;;;;;9.45;4.63;;;27.50;91.10;;;;;;5107087;28;20147;-68
2021/08/15 12:32:22;;;;;;;9.73;4.85;;;27.30;90.70;;;;;;5105940;28;20501;-69
2021/08/15 12:34:55;;;;;;;7.68;4.13;;;27.30;91.30;;;;;;5104448;27;20485;-69
2021/08/15 12:37:23;;;;;;;5.95;3.50;;;27.40;90.00;;;;;;5102838;28;20044;-69
2021/08/15 12:40:07;;;;;;;8.02;3.53;;;27.40;90.40;;;;;;5104448;28;20081;-68
2021/08/15 12:42:34;;;;;;;7.63;4.15;;;27.50;91.50;;;;;;5102717;28;20050;-68
2021/08/15 12:45:24;;;;;;;6.10;3.88;;;27.50;91.00;;;;;;5105678;28;20497;-68
2021/08/15 12:48:00;;;;;;;7.60;4.43;;;27.50;91.10;;;;;;5102675;28;20042;-68